createdAt,value
2018-12-16T00:00:50.884Z,-1.00
2018-12-16T00:03:23.304Z,-1.00
2018-12-16T00:05:55.861Z,-1.00
2018-12-16T00:08:28.369Z,-1.00
2018-12-16T00:11:00.677Z,-1.10
2018-12-16T00:13:33.086Z,-1.10
2018-12-16T00:16:05.697Z,-1.10
2018-12-16T00:18:38.032Z,-1.10
2018-12-16T00:21:10.659Z,-1.10
2018-12-16T00:23:43.296Z,-1.10
2018-12-16T00:26:15.954Z,-1.10
2018-12-16T00:28:48.302Z,-1.10
2018-12-16T00:31:20.698Z,-1.10
2018-12-16T00:33:53.118Z,-1.10
2018-12-16T00:36:25.537Z,-1.00
2018-12-16T00:38:57.966Z,-1.00
2018-12-16T00:41:30.445Z,-1.00
2018-12-16T00:44:03.212Z,-1.10
2018-12-16T00:46:35.626Z,-1.10
2018-12-16T00:49:08.082Z,-1.10
2018-12-16T00:51:40.633Z,-1.10
2018-12-16T00:54:12.928Z,-1.00
2018-12-16T00:56:45.276Z,-1.00
2018-12-16T00:59:17.702Z,-1.00
2018-12-16T01:01:50.109Z,-1.00
2018-12-16T01:04:22.659Z,-1.00
2018-12-16T01:06:55.276Z,-0.90
2018-12-16T01:09:27.833Z,-0.90
2018-12-16T01:12:00.336Z,-0.80
2018-12-16T01:14:32.837Z,-0.80
2018-12-16T01:17:05.632Z,-0.80
2018-12-16T01:19:38.280Z,-0.80
2018-12-16T01:22:10.906Z,-0.70
2018-12-16T01:24:43.303Z,-0.70
2018-12-16T01:27:15.788Z,-0.70
2018-12-16T01:29:48.293Z,-0.70
2018-12-16T01:32:20.777Z,-0.70
2018-12-16T01:34:53.295Z,-0.70
2018-12-16T01:37:25.702Z,-0.70
2018-12-16T01:39:58.168Z,-0.70
2018-12-16T01:42:31.275Z,-0.70
2018-12-16T01:45:03.933Z,-0.70
2018-12-16T01:47:36.467Z,-0.70
2018-12-16T01:50:09.032Z,-0.70
2018-12-16T01:52:41.597Z,-0.70
2018-12-16T01:55:13.957Z,-0.70
2018-12-16T01:57:46.366Z,-0.70
2018-12-16T02:00:19.338Z,-0.70
2018-12-16T02:02:58.967Z,-0.60
2018-12-16T02:05:32.126Z,-0.60
2018-12-16T02:08:04.636Z,-0.60
2018-12-16T02:10:37.068Z,-0.70
2018-12-16T02:13:09.633Z,-0.70
2018-12-16T02:15:42.180Z,-0.60
2018-12-16T02:18:14.620Z,-0.60
2018-12-16T02:20:47.113Z,-0.60
2018-12-16T02:23:19.551Z,-0.60
2018-12-16T02:25:51.957Z,-0.60
2018-12-16T02:28:24.327Z,-0.50
2018-12-16T02:30:56.577Z,-0.50
2018-12-16T02:33:29.014Z,-0.50
2018-12-16T02:36:01.500Z,-0.50
2018-12-16T02:38:34.006Z,-0.50
2018-12-16T02:41:06.398Z,-0.50
2018-12-16T02:43:38.817Z,-0.50
2018-12-16T02:46:11.808Z,-0.50
2018-12-16T02:48:44.176Z,-0.50
2018-12-16T02:51:16.725Z,-0.50
2018-12-16T02:53:49.075Z,-0.50
2018-12-16T02:56:21.737Z,-0.50
2018-12-16T02:58:54.332Z,-0.50
2018-12-16T03:01:26.828Z,-0.50
2018-12-16T03:03:59.282Z,-0.40
2018-12-16T03:06:31.604Z,-0.50
2018-12-16T03:09:04.309Z,-0.50
2018-12-16T03:11:36.767Z,-0.50
2018-12-16T03:14:09.169Z,-0.50
2018-12-16T03:16:41.509Z,-0.50
2018-12-16T03:19:14.349Z,-0.50
2018-12-16T03:21:46.787Z,-0.50
2018-12-16T03:24:19.270Z,-0.50
2018-12-16T03:26:51.903Z,-0.50
2018-12-16T03:29:24.406Z,-0.50
2018-12-16T03:31:56.959Z,-0.40
2018-12-16T03:34:29.362Z,-0.40
2018-12-16T03:37:01.947Z,-0.40
2018-12-16T03:39:34.501Z,-0.40
2018-12-16T03:42:07.306Z,-0.40
2018-12-16T03:44:39.845Z,-0.50
2018-12-16T03:47:12.210Z,-0.40
2018-12-16T03:49:44.823Z,-0.40
2018-12-16T03:52:17.183Z,-0.40
2018-12-16T03:54:49.563Z,-0.40
2018-12-16T03:57:22.123Z,-0.40
2018-12-16T03:59:54.533Z,-0.40
2018-12-16T04:02:26.978Z,-0.40
2018-12-16T04:04:59.466Z,-0.40
2018-12-16T04:07:31.947Z,-0.40
2018-12-16T04:10:04.804Z,-0.40
2018-12-16T04:12:37.332Z,-0.40
2018-12-16T04:15:09.747Z,-0.40
2018-12-16T04:17:42.241Z,-0.40
2018-12-16T04:20:14.638Z,-0.40
2018-12-16T04:22:46.982Z,-0.40
2018-12-16T04:25:20.804Z,-0.40
2018-12-16T04:27:53.305Z,-0.30
2018-12-16T04:30:25.716Z,-0.40
2018-12-16T04:32:58.149Z,-0.30
2018-12-16T04:35:30.500Z,-0.40
2018-12-16T04:38:02.980Z,-0.30
2018-12-16T04:40:35.352Z,-0.30
2018-12-16T04:43:07.861Z,-0.30
2018-12-16T04:45:40.551Z,-0.40
2018-12-16T04:48:12.957Z,-0.30
2018-12-16T04:50:45.352Z,-0.40
2018-12-16T04:53:17.786Z,-0.30
2018-12-16T04:55:50.098Z,-0.30
2018-12-16T04:58:23.261Z,-0.40
2018-12-16T05:00:55.797Z,-0.40
2018-12-16T05:03:28.242Z,-0.40
2018-12-16T05:06:00.676Z,-0.40
2018-12-16T05:08:33.187Z,-0.30
2018-12-16T05:11:05.581Z,-0.40
2018-12-16T05:13:37.934Z,-0.40
2018-12-16T05:16:10.589Z,-0.40
2018-12-16T05:18:43.126Z,-0.40
2018-12-16T05:21:15.555Z,-0.40
2018-12-16T05:23:47.963Z,-0.40
2018-12-16T05:26:27.252Z,-0.30
2018-12-16T05:28:59.768Z,-0.30
2018-12-16T05:31:32.266Z,-0.30
2018-12-16T05:34:04.911Z,-0.30
2018-12-16T05:36:37.529Z,-0.30
2018-12-16T05:39:10.026Z,-0.20
2018-12-16T05:41:42.386Z,-0.20
2018-12-16T05:44:14.910Z,-0.30
2018-12-16T05:46:47.349Z,-0.30
2018-12-16T05:49:19.705Z,-0.30
2018-12-16T05:51:52.228Z,-0.30
2018-12-16T05:54:24.844Z,-0.30
2018-12-16T05:56:57.262Z,-0.30
2018-12-16T05:59:29.743Z,-0.20
2018-12-16T06:02:02.166Z,-0.20
2018-12-16T06:04:34.526Z,-0.20
2018-12-16T06:07:07.103Z,-0.20
2018-12-16T06:09:39.622Z,-0.30
2018-12-16T06:12:12.325Z,-0.30
2018-12-16T06:14:44.796Z,-0.40
2018-12-16T06:17:17.291Z,-0.30
2018-12-16T06:19:49.751Z,-0.40
2018-12-16T06:22:22.126Z,-0.30
2018-12-16T06:24:54.701Z,-0.30
2018-12-16T06:27:27.487Z,-0.40
2018-12-16T06:30:00.186Z,-0.30
2018-12-16T06:32:32.585Z,-0.30
2018-12-16T06:35:05.021Z,-0.30
2018-12-16T06:37:37.465Z,-0.30
2018-12-16T06:40:09.877Z,-0.30
2018-12-16T06:42:42.296Z,-0.30
2018-12-16T06:45:14.818Z,-0.30
2018-12-16T06:47:47.366Z,-0.30
2018-12-16T06:50:19.705Z,-0.30
2018-12-16T06:52:52.249Z,-0.30
2018-12-16T06:55:24.722Z,-0.30
2018-12-16T06:57:57.724Z,-0.30
2018-12-16T07:00:30.758Z,-0.20
2018-12-16T07:03:03.446Z,-0.20
2018-12-16T07:05:36.105Z,-0.20
2018-12-16T07:08:08.460Z,-0.20
2018-12-16T07:10:40.820Z,-0.10
2018-12-16T07:13:13.246Z,-0.10
2018-12-16T07:15:45.749Z,0.00
2018-12-16T07:18:18.154Z,0.00
2018-12-16T07:20:50.802Z,0.00
2018-12-16T07:23:23.203Z,0.00
2018-12-16T07:25:55.696Z,0.00
2018-12-16T07:28:28.155Z,0.00
2018-12-16T07:31:00.799Z,0.00
2018-12-16T07:33:34.021Z,0.00
2018-12-16T07:36:06.530Z,0.00
2018-12-16T07:38:38.990Z,0.00
2018-12-16T07:41:12.435Z,0.00
2018-12-16T07:43:44.860Z,0.00
2018-12-16T07:46:17.521Z,-0.10
2018-12-16T07:48:50.247Z,-0.10
2018-12-16T07:51:22.753Z,-0.20
2018-12-16T07:53:55.324Z,-0.20
2018-12-16T07:56:27.839Z,-0.30
2018-12-16T07:59:00.234Z,-0.40
2018-12-16T08:01:32.719Z,-0.40
2018-12-16T08:04:05.294Z,-0.40
2018-12-16T08:06:37.925Z,-0.40
2018-12-16T08:09:17.631Z,-0.40
2018-12-16T08:11:50.212Z,-0.40
2018-12-16T08:14:22.735Z,-0.40
2018-12-16T08:16:55.279Z,-0.40
2018-12-16T08:19:28.075Z,-0.30
2018-12-16T08:22:00.669Z,-0.30
2018-12-16T08:24:33.094Z,-0.30
2018-12-16T08:27:05.606Z,-0.30
2018-12-16T08:29:38.329Z,-0.20
2018-12-16T08:32:10.955Z,-0.20
2018-12-16T08:34:43.406Z,-0.10
2018-12-16T08:37:15.941Z,0.00
2018-12-16T08:39:48.669Z,0.10
2018-12-16T08:42:21.203Z,0.10
2018-12-16T08:44:53.717Z,0.10
2018-12-16T08:47:32.928Z,0.10
2018-12-16T08:50:00.919Z,0.20
2018-12-16T08:52:33.590Z,0.10
2018-12-16T08:55:06.148Z,0.10
2018-12-16T08:57:38.895Z,0.10
2018-12-16T09:00:11.606Z,0.00
2018-12-16T09:02:44.330Z,0.00
2018-12-16T09:05:16.871Z,0.10
2018-12-16T09:07:49.520Z,0.10
2018-12-16T09:10:22.071Z,0.10
2018-12-16T09:12:54.440Z,0.10
2018-12-16T09:15:26.925Z,0.10
2018-12-16T09:17:59.593Z,0.00
2018-12-16T09:20:32.183Z,0.00
2018-12-16T09:23:05.676Z,0.00
2018-12-16T09:25:38.163Z,0.00
2018-12-16T09:28:10.835Z,0.00
2018-12-16T09:30:43.345Z,0.10
2018-12-16T09:33:15.730Z,0.10
2018-12-16T09:35:48.175Z,0.00
2018-12-16T09:38:20.531Z,0.10
2018-12-16T09:40:52.981Z,0.10
2018-12-16T09:43:25.387Z,0.10
2018-12-16T09:45:57.929Z,0.20
2018-12-16T09:48:30.592Z,0.30
2018-12-16T09:51:03.061Z,0.30
2018-12-16T09:53:35.602Z,0.40
2018-12-16T09:56:08.226Z,0.50
2018-12-16T09:58:40.936Z,0.50
2018-12-16T10:01:13.651Z,0.60
2018-12-16T10:03:46.285Z,0.60
2018-12-16T10:06:18.790Z,0.50
2018-12-16T10:08:51.457Z,0.50
2018-12-16T10:11:24.025Z,0.50
2018-12-16T10:13:56.682Z,0.40
2018-12-16T10:16:29.250Z,0.30
2018-12-16T10:19:01.644Z,0.30
2018-12-16T10:21:34.060Z,0.40
2018-12-16T10:24:06.690Z,0.40
2018-12-16T10:26:39.559Z,0.40
2018-12-16T10:29:12.190Z,0.40
2018-12-16T10:31:44.655Z,0.50
2018-12-16T10:34:17.025Z,0.50
2018-12-16T10:36:49.490Z,0.40
2018-12-16T10:39:22.225Z,0.50
2018-12-16T10:41:54.866Z,0.50
2018-12-16T10:44:27.398Z,0.50
2018-12-16T10:46:59.816Z,0.50
2018-12-16T10:49:32.506Z,0.50
2018-12-16T10:52:05.084Z,0.50
2018-12-16T10:54:37.816Z,0.50
2018-12-16T10:57:10.189Z,0.50
2018-12-16T10:59:42.593Z,0.60
2018-12-16T11:02:15.067Z,0.60
2018-12-16T11:04:47.701Z,0.60
2018-12-16T11:07:20.322Z,0.60
2018-12-16T11:09:52.771Z,0.60
2018-12-16T11:12:25.490Z,0.60
2018-12-16T11:14:57.970Z,0.70
2018-12-16T11:17:30.483Z,0.80
2018-12-16T11:20:04.085Z,0.70
2018-12-16T11:22:36.495Z,0.70
2018-12-16T11:25:10.023Z,0.70
2018-12-16T11:27:42.521Z,0.80
2018-12-16T11:30:15.107Z,0.80
2018-12-16T11:32:48.759Z,0.80
2018-12-16T11:35:21.536Z,0.80
2018-12-16T11:37:53.969Z,0.90
2018-12-16T11:40:26.484Z,0.90
2018-12-16T11:42:59.130Z,0.90
2018-12-16T11:45:31.590Z,0.90
2018-12-16T11:48:04.047Z,1.00
2018-12-16T11:50:36.470Z,1.00
2018-12-16T11:53:08.907Z,1.10
2018-12-16T11:55:41.752Z,1.20
2018-12-16T11:58:14.127Z,1.20
2018-12-16T12:00:46.607Z,1.30
2018-12-16T12:03:20.419Z,1.40
2018-12-16T12:05:53.065Z,1.30
2018-12-16T12:08:25.566Z,1.30
2018-12-16T12:10:58.002Z,1.30
2018-12-16T12:13:30.448Z,1.40
2018-12-16T12:16:03.272Z,1.40
2018-12-16T12:18:35.761Z,1.40
2018-12-16T12:21:08.572Z,1.40
2018-12-16T12:23:41.128Z,1.50
2018-12-16T12:26:13.567Z,1.50
2018-12-16T12:28:46.379Z,1.50
2018-12-16T12:31:18.886Z,1.50
2018-12-16T12:33:51.543Z,1.50
2018-12-16T12:36:24.070Z,1.40
2018-12-16T12:38:56.455Z,1.40
2018-12-16T12:41:29.141Z,1.50
2018-12-16T12:44:01.799Z,1.50
2018-12-16T12:46:34.422Z,1.60
2018-12-16T12:49:06.959Z,1.70
2018-12-16T12:51:39.563Z,1.80
2018-12-16T12:54:12.177Z,1.80
2018-12-16T12:56:44.901Z,1.70
2018-12-16T12:59:17.500Z,1.80
2018-12-16T13:01:49.921Z,1.90
2018-12-16T13:04:22.498Z,2.00
2018-12-16T13:06:55.134Z,2.20
2018-12-16T13:09:27.582Z,2.30
2018-12-16T13:12:00.187Z,2.40
2018-12-16T13:14:32.677Z,2.50
2018-12-16T13:17:05.062Z,2.50
2018-12-16T13:19:37.603Z,2.50
2018-12-16T13:22:10.107Z,2.50
2018-12-16T13:24:55.229Z,2.50
2018-12-16T13:27:27.806Z,2.40
2018-12-16T13:30:00.483Z,2.20
2018-12-16T13:32:33.227Z,2.10
2018-12-16T13:35:06.034Z,2.00
2018-12-16T13:37:38.715Z,2.00
2018-12-16T13:40:11.593Z,1.90
2018-12-16T13:42:44.005Z,1.90
2018-12-16T13:45:16.655Z,1.90
2018-12-16T13:47:49.266Z,2.00
2018-12-16T13:50:21.769Z,1.90
2018-12-16T13:52:54.340Z,1.90
2018-12-16T13:55:27.079Z,1.90
2018-12-16T13:57:59.669Z,1.90
2018-12-16T14:00:32.246Z,1.90
2018-12-16T14:03:05.574Z,1.90
2018-12-16T14:05:37.862Z,1.90
2018-12-16T14:08:10.412Z,1.90
2018-12-16T14:10:43.003Z,1.90
2018-12-16T14:13:15.379Z,1.80
2018-12-16T14:15:52.321Z,1.80
2018-12-16T14:18:22.600Z,1.80
2018-12-16T14:20:55.341Z,1.80
2018-12-16T14:23:27.873Z,1.80
2018-12-16T14:26:00.296Z,1.80
2018-12-16T14:28:32.842Z,1.80
2018-12-16T14:31:05.356Z,1.70
2018-12-16T14:33:37.978Z,1.70
2018-12-16T14:36:10.466Z,1.70
2018-12-16T14:38:43.063Z,1.80
2018-12-16T14:41:15.555Z,1.80
2018-12-16T14:43:48.092Z,1.80
2018-12-16T14:46:20.780Z,1.80
2018-12-16T14:48:53.272Z,1.70
2018-12-16T14:51:26.055Z,1.70
2018-12-16T14:53:58.681Z,1.80
2018-12-16T14:56:31.393Z,1.80
2018-12-16T14:59:04.103Z,1.80
2018-12-16T15:01:36.741Z,1.80
2018-12-16T15:04:09.450Z,1.80
2018-12-16T15:06:42.077Z,1.80
2018-12-16T15:09:14.812Z,1.80
2018-12-16T15:11:47.322Z,1.80
2018-12-16T15:14:19.952Z,1.80
2018-12-16T15:16:53.233Z,1.70
2018-12-16T15:19:25.635Z,1.70
2018-12-16T15:21:58.206Z,1.70
2018-12-16T15:24:30.791Z,1.70
2018-12-16T15:27:03.242Z,1.60
2018-12-16T15:29:35.786Z,1.50
2018-12-16T15:32:16.882Z,1.50
2018-12-16T15:34:49.474Z,1.50
2018-12-16T15:37:22.223Z,1.50
2018-12-16T15:39:54.834Z,1.50
2018-12-16T15:42:27.213Z,1.50
2018-12-16T15:44:59.845Z,1.40
2018-12-16T15:47:32.452Z,1.40
2018-12-16T15:50:09.060Z,1.40
2018-12-16T15:52:41.623Z,1.40
2018-12-16T15:55:14.114Z,1.40
2018-12-16T15:57:46.722Z,1.40
2018-12-16T16:00:21.271Z,1.40
2018-12-16T16:02:54.245Z,1.40
2018-12-16T16:05:33.602Z,1.50
2018-12-16T16:08:06.308Z,1.30
2018-12-16T16:10:38.951Z,1.20
2018-12-16T16:13:11.360Z,1.20
2018-12-16T16:15:43.978Z,1.20
2018-12-16T16:18:16.397Z,1.30
2018-12-16T16:20:48.901Z,1.30
2018-12-16T16:23:21.459Z,1.40
2018-12-16T16:25:54.238Z,1.40
2018-12-16T16:28:26.871Z,1.40
2018-12-16T16:30:59.471Z,1.40
2018-12-16T16:33:31.892Z,1.50
2018-12-16T16:36:04.610Z,1.50
2018-12-16T16:38:37.137Z,1.50
2018-12-16T16:41:09.655Z,1.50
2018-12-16T16:43:42.247Z,1.50
2018-12-16T16:46:14.967Z,1.50
2018-12-16T16:48:47.366Z,1.50
2018-12-16T16:51:19.920Z,1.50
2018-12-16T16:53:52.769Z,1.50
2018-12-16T16:56:25.151Z,1.50
2018-12-16T16:58:57.649Z,1.50
2018-12-16T17:01:30.263Z,1.50
2018-12-16T17:04:02.979Z,1.50
2018-12-16T17:06:35.879Z,1.50
2018-12-16T17:09:08.498Z,1.60
2018-12-16T17:11:41.075Z,1.60
2018-12-16T17:14:13.870Z,1.60
2018-12-16T17:16:46.354Z,1.70
2018-12-16T17:19:19.359Z,1.70
2018-12-16T17:21:52.312Z,1.70
2018-12-16T17:24:25.055Z,1.70
2018-12-16T17:26:57.523Z,1.60
2018-12-16T17:29:29.944Z,1.60
2018-12-16T17:32:02.722Z,1.60
2018-12-16T17:34:35.326Z,1.70
2018-12-16T17:37:07.820Z,1.70
2018-12-16T17:39:40.601Z,1.60
2018-12-16T17:42:13.044Z,1.60
2018-12-16T17:44:45.930Z,1.50
2018-12-16T17:47:18.496Z,1.60
2018-12-16T17:49:51.002Z,1.70
2018-12-16T17:52:23.514Z,1.60
2018-12-16T17:54:56.045Z,1.70
2018-12-16T17:57:28.690Z,1.70
2018-12-16T18:00:01.491Z,1.70
2018-12-16T18:02:35.123Z,1.80
2018-12-16T18:05:08.498Z,1.70
2018-12-16T18:07:41.212Z,1.70
2018-12-16T18:10:14.082Z,1.70
2018-12-16T18:12:47.155Z,1.80
2018-12-16T18:15:19.815Z,1.80
2018-12-16T18:17:52.631Z,1.90
2018-12-16T18:20:25.354Z,1.90
2018-12-16T18:22:58.079Z,1.90
2018-12-16T18:25:30.569Z,2.00
2018-12-16T18:28:03.426Z,2.00
2018-12-16T18:30:36.020Z,2.00
2018-12-16T18:33:09.155Z,1.90
2018-12-16T18:35:41.898Z,1.80
2018-12-16T18:38:14.825Z,1.80
2018-12-16T18:40:47.486Z,1.80
2018-12-16T18:43:20.406Z,1.80
2018-12-16T18:45:53.123Z,1.90
2018-12-16T18:48:25.892Z,1.90
2018-12-16T18:50:58.605Z,1.90
2018-12-16T18:53:38.318Z,1.90
2018-12-16T18:56:10.903Z,1.80
2018-12-16T18:58:43.470Z,1.80
2018-12-16T19:01:15.970Z,1.90
2018-12-16T19:03:48.786Z,1.90
2018-12-16T19:06:21.665Z,1.90
2018-12-16T19:08:54.170Z,2.00
2018-12-16T19:11:27.011Z,2.00
2018-12-16T19:13:59.875Z,2.00
2018-12-16T19:16:32.421Z,2.00
2018-12-16T19:19:04.955Z,2.10
2018-12-16T19:21:37.487Z,2.10
2018-12-16T19:24:15.210Z,2.10
2018-12-16T19:26:47.801Z,2.10
2018-12-16T19:29:20.304Z,2.10
2018-12-16T19:31:52.882Z,2.10
2018-12-16T19:34:25.350Z,2.10
2018-12-16T19:36:58.022Z,2.10
2018-12-16T19:39:30.849Z,2.10
2018-12-16T19:42:03.496Z,2.20
2018-12-16T19:44:36.104Z,2.20
2018-12-16T19:47:13.809Z,2.10
2018-12-16T19:49:46.523Z,2.10
2018-12-16T19:52:19.149Z,2.10
2018-12-16T19:54:52.217Z,2.20
2018-12-16T19:57:24.708Z,2.20
2018-12-16T19:59:57.356Z,2.20
2018-12-16T20:02:29.910Z,2.20
2018-12-16T20:05:04.016Z,2.30
2018-12-16T20:07:36.476Z,2.30
2018-12-16T20:10:09.220Z,2.30
2018-12-16T20:12:41.793Z,2.20
2018-12-16T20:15:14.268Z,2.20
2018-12-16T20:17:46.750Z,2.20
2018-12-16T20:20:19.207Z,2.20
2018-12-16T20:22:51.724Z,2.10
2018-12-16T20:25:24.534Z,2.10
2018-12-16T20:27:57.124Z,2.10
2018-12-16T20:30:29.524Z,2.00
2018-12-16T20:33:02.154Z,2.00
2018-12-16T20:35:35.066Z,2.00
2018-12-16T20:38:07.826Z,1.90
2018-12-16T20:40:40.610Z,1.90
2018-12-16T20:43:13.435Z,1.90
2018-12-16T20:45:45.995Z,1.90
2018-12-16T20:48:18.777Z,1.90
2018-12-16T20:50:51.236Z,1.90
2018-12-16T20:53:30.782Z,1.90
2018-12-16T20:56:03.288Z,1.90
2018-12-16T20:58:36.097Z,1.90
2018-12-16T21:01:10.006Z,1.90
2018-12-16T21:03:42.560Z,1.90
2018-12-16T21:06:15.285Z,1.90
2018-12-16T21:08:47.990Z,1.80
2018-12-16T21:11:26.659Z,1.80
2018-12-16T21:14:05.050Z,1.80
2018-12-16T21:16:43.448Z,1.80
2018-12-16T21:19:16.010Z,1.80
2018-12-16T21:21:48.511Z,1.80
2018-12-16T21:24:21.219Z,1.80
2018-12-16T21:26:54.069Z,1.80
2018-12-16T21:29:26.686Z,1.80
2018-12-16T21:31:59.298Z,1.80
2018-12-16T21:34:31.920Z,1.90
2018-12-16T21:37:04.505Z,1.80
2018-12-16T21:39:37.099Z,1.90
2018-12-16T21:42:09.543Z,1.90
2018-12-16T21:44:49.107Z,1.90
2018-12-16T21:47:21.544Z,1.90
2018-12-16T21:49:53.986Z,1.90
2018-12-16T21:52:26.756Z,2.00
2018-12-16T21:54:59.329Z,2.00
2018-12-16T21:57:33.154Z,2.10
2018-12-16T22:00:07.136Z,2.10
2018-12-16T22:02:39.648Z,2.10
2018-12-16T22:05:13.274Z,2.10
2018-12-16T22:07:46.333Z,2.10
2018-12-16T22:10:18.680Z,2.10
2018-12-16T22:12:51.105Z,2.10
2018-12-16T22:15:23.430Z,2.10
2018-12-16T22:17:55.917Z,2.10
2018-12-16T22:20:28.280Z,2.00
2018-12-16T22:23:00.665Z,2.00
2018-12-16T22:25:33.040Z,2.00
2018-12-16T22:28:05.587Z,2.00
2018-12-16T22:30:38.098Z,2.00
2018-12-16T22:33:10.609Z,2.00
2018-12-16T22:35:43.013Z,2.10
2018-12-16T22:38:15.610Z,2.10
2018-12-16T22:40:48.195Z,2.10
2018-12-16T22:43:20.829Z,2.10
2018-12-16T22:45:53.302Z,2.10
2018-12-16T22:48:25.718Z,2.10
2018-12-16T22:50:58.099Z,2.10
2018-12-16T22:53:30.608Z,2.00
2018-12-16T22:56:03.023Z,2.00
2018-12-16T22:58:35.415Z,1.90
2018-12-16T23:01:14.331Z,1.90
2018-12-16T23:03:47.059Z,1.90
2018-12-16T23:06:19.505Z,1.90
2018-12-16T23:08:51.979Z,1.80
2018-12-16T23:11:24.490Z,1.80
2018-12-16T23:13:57.072Z,1.90
2018-12-16T23:16:29.678Z,1.90
2018-12-16T23:19:02.074Z,1.80
2018-12-16T23:21:34.522Z,1.90
2018-12-16T23:24:06.804Z,1.90
2018-12-16T23:26:39.267Z,1.90
2018-12-16T23:29:11.739Z,1.90
2018-12-16T23:31:44.112Z,1.80
2018-12-16T23:34:16.836Z,1.80
2018-12-16T23:36:49.392Z,1.80
2018-12-16T23:39:21.795Z,1.80
2018-12-16T23:41:54.383Z,1.80
2018-12-16T23:44:27.212Z,1.80
2018-12-16T23:46:59.753Z,1.80
2018-12-16T23:49:32.137Z,1.70
2018-12-16T23:52:04.574Z,1.70
2018-12-16T23:54:36.906Z,1.60
2018-12-16T23:57:09.418Z,1.60
2018-12-16T23:59:41.872Z,1.60
